createdAt,value
2024-02-19T00:01:26.846Z,0.80
2024-02-19T00:03:57.242Z,0.35
2024-02-19T00:06:27.408Z,3.72
2024-02-19T00:08:59.839Z,0.13
2024-02-19T00:11:31.241Z,0.75
2024-02-19T00:14:01.129Z,0.20
2024-02-19T00:16:31.072Z,0.10
2024-02-19T00:19:01.146Z,0.10
2024-02-19T00:21:31.009Z,0.93
2024-02-19T00:24:03.456Z,0.20
2024-02-19T00:26:33.255Z,0.70
2024-02-19T00:29:03.035Z,0.10
2024-02-19T00:31:33.527Z,2.13
2024-02-19T00:34:03.363Z,0.22
2024-02-19T00:36:33.211Z,0.95
2024-02-19T00:39:06.144Z,0.10
2024-02-19T00:41:36.049Z,0.10
2024-02-19T00:44:05.805Z,0.10
2024-02-19T00:46:35.761Z,0.20
2024-02-19T00:49:05.614Z,2.45
2024-02-19T00:51:38.069Z,0.20
2024-02-19T00:54:10.436Z,0.20
2024-02-19T00:56:40.882Z,0.45
2024-02-19T00:59:11.069Z,0.30
2024-02-19T01:01:41.027Z,0.40
2024-02-19T01:04:10.932Z,0.60
2024-02-19T01:06:40.803Z,1.42
2024-02-19T01:09:13.660Z,0.70
2024-02-19T01:11:43.992Z,1.00
2024-02-19T01:14:13.743Z,1.10
2024-02-19T01:16:43.540Z,0.73
2024-02-19T01:19:14.203Z,0.98
2024-02-19T01:21:44.362Z,1.33
2024-02-19T01:24:16.823Z,1.88
2024-02-19T01:26:46.972Z,1.67
2024-02-19T01:29:17.095Z,2.05
2024-02-19T01:31:46.920Z,2.58
2024-02-19T01:34:17.535Z,2.20
2024-02-19T01:36:47.710Z,1.63
2024-02-19T01:39:20.158Z,1.65
2024-02-19T01:41:50.000Z,2.38
2024-02-19T01:44:19.789Z,1.17
2024-02-19T01:46:50.080Z,1.23
2024-02-19T01:49:20.066Z,1.25
2024-02-19T01:51:50.638Z,0.73
2024-02-19T01:54:23.181Z,1.08
2024-02-19T01:56:54.435Z,1.15
2024-02-19T01:59:25.743Z,0.52
2024-02-19T02:01:57.288Z,0.45
2024-02-19T02:04:27.864Z,0.65
2024-02-19T02:06:58.108Z,0.43
2024-02-19T02:09:30.701Z,0.73
2024-02-19T02:12:00.630Z,0.60
2024-02-19T02:14:30.640Z,0.20
2024-02-19T02:17:00.426Z,0.75
2024-02-19T02:19:30.373Z,0.55
2024-02-19T02:22:00.245Z,0.20
2024-02-19T02:24:32.739Z,0.25
2024-02-19T02:27:05.161Z,0.38
2024-02-19T02:29:35.012Z,0.20
2024-02-19T02:32:04.852Z,0.20
2024-02-19T02:34:35.917Z,0.20
2024-02-19T02:37:06.480Z,0.38
2024-02-19T02:39:33.974Z,0.65
2024-02-19T02:42:07.049Z,0.20
2024-02-19T02:44:36.945Z,0.50
2024-02-19T02:47:07.353Z,0.20
2024-02-19T02:49:37.254Z,0.47
2024-02-19T02:52:07.567Z,0.52
2024-02-19T02:54:38.416Z,0.20
2024-02-19T02:57:10.855Z,0.65
2024-02-19T02:59:40.633Z,0.50
2024-02-19T03:02:10.451Z,0.30
2024-02-19T03:04:40.490Z,0.20
2024-02-19T03:07:10.453Z,0.20
2024-02-19T03:09:40.353Z,0.10
2024-02-19T03:12:12.871Z,0.65
2024-02-19T03:14:42.808Z,0.20
2024-02-19T03:17:12.627Z,0.40
2024-02-19T03:19:42.860Z,0.95
2024-02-19T03:22:12.998Z,0.10
2024-02-19T03:24:42.933Z,0.43
2024-02-19T03:27:15.871Z,0.20
2024-02-19T03:29:45.630Z,0.20
2024-02-19T03:32:15.419Z,1.83
2024-02-19T03:34:45.217Z,0.40
2024-02-19T03:37:16.570Z,0.98
2024-02-19T03:39:46.486Z,0.60
2024-02-19T03:42:18.877Z,0.10
2024-02-19T03:44:48.758Z,0.52
2024-02-19T03:47:18.641Z,0.45
2024-02-19T03:49:48.491Z,0.95
2024-02-19T03:52:18.613Z,1.02
2024-02-19T03:54:48.648Z,0.15
2024-02-19T03:57:23.881Z,0.43
2024-02-19T03:59:53.741Z,0.55
2024-02-19T04:02:23.526Z,7.13
2024-02-19T04:04:53.445Z,0.30
2024-02-19T04:07:23.298Z,0.30
2024-02-19T04:09:53.149Z,0.32
2024-02-19T04:12:25.612Z,0.38
2024-02-19T04:14:56.971Z,0.38
2024-02-19T04:17:27.774Z,0.65
2024-02-19T04:20:00.271Z,0.32
2024-02-19T04:22:30.150Z,0.50
2024-02-19T04:24:59.981Z,0.98
2024-02-19T04:27:32.344Z,0.95
2024-02-19T04:30:02.167Z,0.65
2024-02-19T04:32:32.516Z,0.20
2024-02-19T04:35:02.546Z,0.20
2024-02-19T04:37:34.146Z,0.55
2024-02-19T04:40:04.498Z,0.50
2024-02-19T04:42:37.239Z,0.60
2024-02-19T04:45:08.090Z,0.32
2024-02-19T04:47:37.995Z,0.45
2024-02-19T04:50:09.888Z,0.30
2024-02-19T04:52:39.895Z,0.40
2024-02-19T04:55:10.506Z,0.17
2024-02-19T04:57:43.085Z,3.88
2024-02-19T05:00:14.157Z,0.38
2024-02-19T05:02:44.044Z,0.98
2024-02-19T05:05:14.017Z,0.50
2024-02-19T05:07:44.003Z,0.77
2024-02-19T05:10:14.520Z,0.30
2024-02-19T05:12:46.962Z,1.65
2024-02-19T05:15:16.960Z,0.55
2024-02-19T05:17:46.850Z,1.40
2024-02-19T05:20:17.059Z,5.10
2024-02-19T05:22:47.311Z,1.98
2024-02-19T05:25:17.734Z,1.25
2024-02-19T05:27:50.230Z,0.82
2024-02-19T05:30:21.536Z,0.65
2024-02-19T05:32:51.461Z,0.98
2024-02-19T05:35:22.279Z,0.25
2024-02-19T05:37:52.364Z,0.93
2024-02-19T05:40:22.315Z,1.95
2024-02-19T05:42:54.769Z,2.63
2024-02-19T05:45:24.650Z,0.98
2024-02-19T05:47:54.494Z,1.02
2024-02-19T05:50:24.469Z,1.02
2024-02-19T05:52:54.240Z,0.98
2024-02-19T05:55:24.143Z,0.30
2024-02-19T05:57:56.576Z,0.50
2024-02-19T06:00:26.456Z,0.30
2024-02-19T06:02:57.395Z,0.85
2024-02-19T06:05:27.264Z,1.13
2024-02-19T06:07:57.068Z,0.40
2024-02-19T06:10:26.898Z,0.77
2024-02-19T06:12:59.982Z,0.60
2024-02-19T06:15:29.813Z,0.22
2024-02-19T06:17:59.668Z,1.10
2024-02-19T06:20:29.778Z,0.55
2024-02-19T06:22:59.636Z,2.08
2024-02-19T06:25:29.601Z,0.40
2024-02-19T06:28:03.511Z,0.60
2024-02-19T06:30:33.422Z,0.40
2024-02-19T06:33:03.326Z,0.90
2024-02-19T06:35:33.315Z,3.35
2024-02-19T06:38:03.891Z,0.43
2024-02-19T06:40:33.815Z,0.85
2024-02-19T06:43:06.505Z,0.47
2024-02-19T06:45:36.413Z,0.80
2024-02-19T06:48:06.958Z,1.00
2024-02-19T06:50:36.885Z,0.90
2024-02-19T06:53:07.574Z,0.55
2024-02-19T06:55:37.382Z,0.65
2024-02-19T06:58:09.991Z,2.10
2024-02-19T07:00:40.976Z,0.75
2024-02-19T07:03:10.840Z,2.90
2024-02-19T07:05:41.429Z,7.50
2024-02-19T07:08:13.309Z,1.20
2024-02-19T07:10:43.563Z,1.08
2024-02-19T07:13:16.062Z,1.10
2024-02-19T07:15:45.941Z,2.47
2024-02-19T07:18:15.887Z,1.15
2024-02-19T07:20:45.946Z,1.63
2024-02-19T07:23:15.801Z,1.88
2024-02-19T07:25:45.649Z,1.00
2024-02-19T07:28:18.075Z,1.70
2024-02-19T07:30:47.898Z,1.73
2024-02-19T07:33:17.766Z,1.00
2024-02-19T07:35:47.641Z,1.35
2024-02-19T07:38:17.422Z,0.82
2024-02-19T07:40:47.211Z,1.92
2024-02-19T07:43:19.701Z,0.93
2024-02-19T07:45:49.658Z,1.17
2024-02-19T07:48:19.525Z,3.10
2024-02-19T07:50:49.406Z,1.95
2024-02-19T07:53:19.224Z,1.20
2024-02-19T07:55:49.032Z,1.70
2024-02-19T07:58:21.757Z,1.08
2024-02-19T08:00:52.188Z,1.83
2024-02-19T08:03:22.027Z,1.05
2024-02-19T08:05:51.958Z,0.88
2024-02-19T08:08:22.992Z,1.80
2024-02-19T08:10:52.863Z,2.75
2024-02-19T08:13:25.608Z,0.68
2024-02-19T08:15:55.601Z,0.90
2024-02-19T08:18:25.795Z,2.15
2024-02-19T08:20:55.692Z,1.70
2024-02-19T08:23:25.529Z,1.00
2024-02-19T08:25:55.415Z,0.80
2024-02-19T08:28:27.865Z,1.05
2024-02-19T08:30:58.603Z,1.13
2024-02-19T08:33:29.375Z,0.40
2024-02-19T08:36:01.895Z,0.95
2024-02-19T08:38:31.989Z,0.95
2024-02-19T08:41:01.824Z,0.85
2024-02-19T08:43:34.283Z,0.68
2024-02-19T08:46:04.152Z,0.60
2024-02-19T08:48:33.977Z,1.20
2024-02-19T08:51:03.855Z,0.35
2024-02-19T08:53:33.753Z,0.30
2024-02-19T08:56:04.323Z,0.95
2024-02-19T08:58:37.002Z,0.25
2024-02-19T09:01:11.634Z,0.50
2024-02-19T09:03:41.761Z,0.68
2024-02-19T09:06:11.749Z,0.50
2024-02-19T09:08:41.936Z,0.28
2024-02-19T09:11:11.895Z,0.30
2024-02-19T09:13:47.105Z,0.70
2024-02-19T09:16:17.554Z,0.70
2024-02-19T09:18:47.638Z,0.68
2024-02-19T09:21:17.549Z,1.33
2024-02-19T09:23:47.620Z,0.68
2024-02-19T09:26:17.558Z,1.70
2024-02-19T09:28:49.963Z,0.47
2024-02-19T09:31:24.327Z,4.03
2024-02-19T09:33:54.820Z,3.28
2024-02-19T09:36:24.766Z,0.55
2024-02-19T09:38:54.633Z,0.40
2024-02-19T09:41:24.648Z,0.65
2024-02-19T09:43:57.643Z,0.80
2024-02-19T09:46:27.576Z,0.52
2024-02-19T09:49:03.252Z,0.93
2024-02-19T09:51:37.521Z,2.30
2024-02-19T09:54:11.882Z,0.77
2024-02-19T09:56:41.836Z,1.48
2024-02-19T09:59:15.167Z,0.75
2024-02-19T10:01:45.088Z,1.35
2024-02-19T10:04:15.911Z,0.98
2024-02-19T10:06:46.743Z,1.20
2024-02-19T10:09:16.896Z,0.75
2024-02-19T10:11:48.602Z,0.90
2024-02-19T10:14:21.592Z,0.90
2024-02-19T10:16:54.270Z,0.50
2024-02-19T10:19:24.160Z,4.13
2024-02-19T10:21:54.021Z,1.20
2024-02-19T10:24:24.536Z,0.60
2024-02-19T10:26:55.004Z,0.55
2024-02-19T10:29:29.523Z,0.40
2024-02-19T10:31:59.342Z,0.73
2024-02-19T10:34:29.256Z,1.75
2024-02-19T10:37:00.410Z,2.03
2024-02-19T10:39:33.055Z,0.88
2024-02-19T10:42:03.357Z,0.57
2024-02-19T10:44:37.037Z,1.55
2024-02-19T10:47:08.620Z,0.85
2024-02-19T10:49:38.535Z,1.63
2024-02-19T10:52:08.967Z,0.77
2024-02-19T10:54:38.794Z,0.93
2024-02-19T10:57:10.972Z,1.63
2024-02-19T10:59:44.426Z,2.25
2024-02-19T11:02:14.443Z,7.10
2024-02-19T11:04:44.481Z,2.40
2024-02-19T11:07:16.289Z,1.80
2024-02-19T11:09:46.153Z,2.22
2024-02-19T11:12:18.487Z,3.00
2024-02-19T11:14:53.850Z,2.10
2024-02-19T11:17:23.655Z,1.35
2024-02-19T11:19:55.171Z,0.95
2024-02-19T11:22:31.644Z,1.83
2024-02-19T11:25:02.382Z,2.15
2024-02-19T11:27:32.405Z,3.80
2024-02-19T11:30:07.403Z,0.85
2024-02-19T11:32:38.018Z,2.13
2024-02-19T11:35:15.215Z,1.48
2024-02-19T11:37:47.411Z,3.45
2024-02-19T11:40:17.472Z,1.10
2024-02-19T11:42:48.110Z,1.15
2024-02-19T11:45:21.208Z,0.95
2024-02-19T11:47:51.239Z,2.33
2024-02-19T11:50:25.145Z,2.83
2024-02-19T11:52:55.434Z,2.33
2024-02-19T11:55:25.524Z,2.28
2024-02-19T11:57:55.887Z,1.73
2024-02-19T12:00:31.130Z,1.40
2024-02-19T12:03:04.030Z,2.45
2024-02-19T12:05:34.225Z,1.17
2024-02-19T12:08:05.504Z,1.45
2024-02-19T12:10:35.673Z,2.38
2024-02-19T12:13:05.600Z,3.45
2024-02-19T12:15:38.075Z,2.65
2024-02-19T12:18:08.298Z,1.08
2024-02-19T12:20:38.226Z,2.03
2024-02-19T12:23:08.258Z,1.30
2024-02-19T12:25:38.131Z,2.60
2024-02-19T12:28:08.633Z,2.78
2024-02-19T12:30:41.058Z,3.33
2024-02-19T12:33:12.285Z,4.60
2024-02-19T12:35:42.480Z,4.70
2024-02-19T12:38:12.455Z,2.30
2024-02-19T12:40:42.797Z,1.15
2024-02-19T12:43:13.064Z,2.50
2024-02-19T12:45:45.749Z,2.53
2024-02-19T12:48:15.677Z,2.05
2024-02-19T12:50:45.568Z,2.90
2024-02-19T12:53:16.746Z,1.67
2024-02-19T12:55:46.590Z,2.05
2024-02-19T12:58:16.912Z,5.18
2024-02-19T13:00:49.829Z,1.95
2024-02-19T13:03:19.795Z,2.17
2024-02-19T13:05:50.202Z,1.70
2024-02-19T13:08:20.418Z,1.67
2024-02-19T13:10:51.238Z,0.88
2024-02-19T13:13:21.833Z,2.75
2024-02-19T13:15:55.061Z,3.58
2024-02-19T13:18:25.273Z,4.78
2024-02-19T13:20:57.585Z,1.25
2024-02-19T13:23:27.746Z,1.00
2024-02-19T13:25:57.499Z,2.88
2024-02-19T13:28:27.331Z,1.13
2024-02-19T13:31:00.056Z,1.48
2024-02-19T13:33:30.711Z,5.05
2024-02-19T13:36:00.607Z,3.90
2024-02-19T13:38:31.172Z,0.68
2024-02-19T13:41:04.461Z,3.00
2024-02-19T13:43:34.778Z,2.15
2024-02-19T13:46:08.703Z,1.75
2024-02-19T13:48:40.888Z,1.98
2024-02-19T13:51:10.890Z,2.28
2024-02-19T13:53:40.768Z,3.63
2024-02-19T13:56:10.609Z,2.90
2024-02-19T13:58:40.638Z,3.35
2024-02-19T14:01:13.560Z,2.58
2024-02-19T14:03:44.104Z,4.03
2024-02-19T14:06:13.991Z,2.13
2024-02-19T14:08:43.886Z,3.30
2024-02-19T14:11:13.691Z,4.70
2024-02-19T14:13:50.832Z,3.70
2024-02-19T14:16:27.868Z,3.80
2024-02-19T14:18:58.346Z,2.85
2024-02-19T14:21:29.864Z,1.90
2024-02-19T14:23:59.919Z,1.52
2024-02-19T14:26:30.422Z,0.75
2024-02-19T14:29:02.786Z,1.52
2024-02-19T14:31:35.901Z,0.95
2024-02-19T14:34:05.917Z,5.43
2024-02-19T14:36:35.933Z,0.95
2024-02-19T14:39:11.039Z,1.27
2024-02-19T14:41:41.054Z,4.65
2024-02-19T14:44:10.948Z,4.00
2024-02-19T14:46:51.622Z,6.53
2024-02-19T14:49:27.697Z,1.92
2024-02-19T14:51:58.255Z,4.57
2024-02-19T14:54:28.350Z,2.53
2024-02-19T14:57:00.426Z,1.27
2024-02-19T14:59:30.777Z,2.67
2024-02-19T15:02:04.134Z,2.30
2024-02-19T15:04:34.211Z,5.13
2024-02-19T15:07:04.912Z,1.52
2024-02-19T15:09:34.931Z,1.40
2024-02-19T15:12:04.775Z,3.13
2024-02-19T15:14:34.634Z,2.90
2024-02-19T15:17:07.867Z,1.70
2024-02-19T15:19:37.860Z,10.45
2024-02-19T15:22:07.799Z,1.65
2024-02-19T15:24:37.616Z,3.45
2024-02-19T15:27:07.522Z,1.25
2024-02-19T15:29:37.357Z,6.88
2024-02-19T15:32:11.924Z,3.38
2024-02-19T15:34:41.803Z,2.70
2024-02-19T15:37:11.705Z,2.67
2024-02-19T15:39:41.521Z,2.45
2024-02-19T15:42:11.343Z,4.35
2024-02-19T15:44:41.262Z,4.00
2024-02-19T15:47:14.141Z,4.15
2024-02-19T15:49:48.258Z,3.15
2024-02-19T15:52:18.385Z,5.55
2024-02-19T15:54:50.675Z,3.08
2024-02-19T15:57:21.867Z,4.30
2024-02-19T15:59:52.490Z,3.25
2024-02-19T16:02:24.927Z,1.90
2024-02-19T16:04:54.842Z,2.55
2024-02-19T16:07:26.563Z,4.72
2024-02-19T16:09:57.497Z,2.15
2024-02-19T16:12:27.591Z,3.75
2024-02-19T16:14:57.438Z,2.13
2024-02-19T16:17:29.855Z,3.45
2024-02-19T16:19:59.742Z,2.42
2024-02-19T16:22:29.588Z,3.60
2024-02-19T16:25:00.595Z,1.88
2024-02-19T16:27:31.159Z,3.15
2024-02-19T16:30:00.971Z,2.38
2024-02-19T16:32:34.748Z,4.53
2024-02-19T16:35:05.833Z,2.33
2024-02-19T16:37:36.060Z,4.55
2024-02-19T16:40:07.158Z,4.68
2024-02-19T16:42:39.483Z,4.40
2024-02-19T16:45:10.344Z,3.60
2024-02-19T16:47:42.738Z,6.38
2024-02-19T16:50:12.719Z,3.85
2024-02-19T16:52:42.904Z,6.97
2024-02-19T16:55:12.857Z,2.25
2024-02-19T16:57:42.954Z,4.03
2024-02-19T17:00:13.833Z,5.18
2024-02-19T17:02:46.420Z,6.57
2024-02-19T17:05:16.578Z,4.55
2024-02-19T17:07:46.778Z,4.20
2024-02-19T17:10:19.126Z,3.70
2024-02-19T17:12:49.446Z,5.05
2024-02-19T17:15:19.460Z,4.13
2024-02-19T17:17:51.897Z,5.35
2024-02-19T17:20:22.464Z,5.35
2024-02-19T17:22:52.641Z,3.33
2024-02-19T17:25:22.568Z,4.25
2024-02-19T17:27:53.129Z,4.38
2024-02-19T17:30:23.201Z,14.20
2024-02-19T17:32:55.974Z,2.85
2024-02-19T17:35:26.875Z,4.63
2024-02-19T17:37:56.728Z,6.18
2024-02-19T17:40:27.476Z,4.80
2024-02-19T17:42:57.379Z,8.82
2024-02-19T17:45:27.302Z,6.00
2024-02-19T17:47:59.942Z,7.05
2024-02-19T17:50:36.908Z,3.13
2024-02-19T17:53:07.121Z,5.40
2024-02-19T17:55:37.124Z,5.28
2024-02-19T17:58:07.346Z,4.97
2024-02-19T18:00:37.540Z,6.00
2024-02-19T18:03:10.179Z,5.03
2024-02-19T18:05:40.393Z,6.82
2024-02-19T18:08:10.446Z,6.32
2024-02-19T18:10:40.350Z,4.68
2024-02-19T18:13:11.274Z,5.03
2024-02-19T18:15:41.298Z,5.28
2024-02-19T18:18:13.889Z,5.32
2024-02-19T18:20:49.407Z,6.00
2024-02-19T18:23:20.247Z,4.72
2024-02-19T18:25:50.401Z,9.05
2024-02-19T18:28:20.175Z,12.00
2024-02-19T18:30:50.055Z,6.32
2024-02-19T18:33:23.445Z,4.97
2024-02-19T18:35:53.226Z,4.05
2024-02-19T18:38:23.064Z,3.60
2024-02-19T18:40:54.471Z,4.55
2024-02-19T18:43:26.859Z,4.55
2024-02-19T18:45:56.873Z,8.63
2024-02-19T18:48:30.011Z,3.92
2024-02-19T18:50:59.960Z,3.63
2024-02-19T18:53:29.791Z,4.18
2024-02-19T18:56:01.893Z,5.72
2024-02-19T18:58:32.672Z,9.35
2024-02-19T19:01:05.607Z,7.13
2024-02-19T19:03:38.412Z,7.88
2024-02-19T19:06:08.971Z,6.82
2024-02-19T19:08:38.813Z,6.03
2024-02-19T19:11:08.640Z,5.80
2024-02-19T19:13:41.686Z,5.43
2024-02-19T19:16:11.608Z,5.45
2024-02-19T19:18:44.347Z,5.75
2024-02-19T19:21:14.876Z,8.35
2024-02-19T19:23:46.634Z,6.30
2024-02-19T19:26:16.958Z,4.07
2024-02-19T19:28:46.831Z,5.30
2024-02-19T19:31:16.684Z,5.00
2024-02-19T19:33:49.361Z,5.15
2024-02-19T19:36:19.468Z,9.88
2024-02-19T19:38:49.278Z,5.32
2024-02-19T19:41:19.122Z,5.68
2024-02-19T19:43:50.873Z,4.25
2024-02-19T19:46:20.897Z,8.50
2024-02-19T19:48:53.331Z,6.88
2024-02-19T19:51:21.118Z,6.22
2024-02-19T19:53:50.921Z,8.23
2024-02-19T19:56:20.738Z,6.95
2024-02-19T19:58:54.809Z,5.47
2024-02-19T20:01:24.845Z,8.45
2024-02-19T20:03:57.344Z,7.60
2024-02-19T20:06:27.318Z,5.65
2024-02-19T20:08:57.153Z,7.85
2024-02-19T20:11:27.078Z,7.25
2024-02-19T20:13:57.002Z,6.63
2024-02-19T20:16:28.216Z,7.35
2024-02-19T20:19:00.785Z,9.48
2024-02-19T20:21:30.664Z,10.52
2024-02-19T20:24:02.332Z,11.82
2024-02-19T20:26:32.232Z,9.98
2024-02-19T20:29:02.136Z,10.65
2024-02-19T20:31:32.622Z,12.15
2024-02-19T20:34:05.168Z,10.20
2024-02-19T20:36:37.753Z,12.50
2024-02-19T20:39:10.438Z,15.32
2024-02-19T20:41:40.233Z,15.05
2024-02-19T20:44:09.990Z,12.32
2024-02-19T20:46:40.540Z,15.20
2024-02-19T20:49:13.388Z,17.42
2024-02-19T20:51:43.574Z,14.48
2024-02-19T20:54:13.684Z,13.32
2024-02-19T20:56:45.126Z,17.13
2024-02-19T20:59:15.081Z,15.90
2024-02-19T21:01:47.812Z,15.63
2024-02-19T21:04:20.993Z,13.98
2024-02-19T21:06:50.886Z,18.25
2024-02-19T21:09:20.767Z,18.35
2024-02-19T21:11:50.638Z,18.38
2024-02-19T21:14:21.235Z,23.42
2024-02-19T21:16:51.123Z,16.52
2024-02-19T21:19:25.064Z,20.27
2024-02-19T21:21:55.068Z,15.52
2024-02-19T21:24:25.281Z,16.35
2024-02-19T21:26:56.436Z,19.52
2024-02-19T21:29:30.105Z,18.63
2024-02-19T21:32:00.250Z,17.10
2024-02-19T21:34:32.776Z,21.05
2024-02-19T21:37:02.639Z,19.67
2024-02-19T21:39:32.607Z,19.25
2024-02-19T21:42:02.401Z,16.85
2024-02-19T21:44:32.206Z,16.95
2024-02-19T21:47:03.505Z,19.75
2024-02-19T21:49:35.944Z,19.50
2024-02-19T21:52:05.830Z,16.30
2024-02-19T21:54:35.670Z,17.10
2024-02-19T21:57:05.626Z,16.90
2024-02-19T21:59:35.553Z,16.60
2024-02-19T22:02:05.471Z,13.73
2024-02-19T22:04:39.802Z,16.77
2024-02-19T22:07:10.348Z,12.25
2024-02-19T22:09:41.066Z,14.00
2024-02-19T22:12:12.041Z,10.88
2024-02-19T22:14:42.294Z,11.52
2024-02-19T22:17:12.176Z,13.52
2024-02-19T22:19:45.092Z,14.27
2024-02-19T22:22:15.556Z,15.55
2024-02-19T22:24:46.286Z,12.32
2024-02-19T22:27:16.133Z,13.38
2024-02-19T22:29:45.940Z,11.10
2024-02-19T22:32:15.689Z,14.90
2024-02-19T22:34:48.466Z,9.13
2024-02-19T22:37:19.200Z,9.52
2024-02-19T22:39:49.101Z,9.90
2024-02-19T22:42:18.951Z,13.07
2024-02-19T22:44:48.746Z,13.02
2024-02-19T22:47:18.542Z,10.63
2024-02-19T22:49:50.950Z,9.50
2024-02-19T22:52:20.892Z,8.75
2024-02-19T22:54:51.370Z,9.95
2024-02-19T22:57:22.585Z,10.10
2024-02-19T22:59:53.106Z,10.15
2024-02-19T23:02:22.897Z,10.35
2024-02-19T23:04:55.301Z,10.98
2024-02-19T23:07:25.114Z,9.70
2024-02-19T23:09:54.929Z,7.50
2024-02-19T23:12:24.758Z,7.57
2024-02-19T23:14:54.547Z,9.35
2024-02-19T23:17:24.323Z,7.22
2024-02-19T23:19:56.841Z,6.80
2024-02-19T23:22:26.734Z,7.28
2024-02-19T23:24:56.584Z,7.15
2024-02-19T23:27:27.247Z,5.43
2024-02-19T23:29:57.073Z,7.30
2024-02-19T23:32:26.973Z,6.53
2024-02-19T23:34:59.999Z,5.50
2024-02-19T23:37:29.983Z,6.20
2024-02-19T23:40:00.083Z,6.78
2024-02-19T23:42:30.019Z,5.50
2024-02-19T23:44:59.898Z,5.55
2024-02-19T23:47:30.360Z,3.78
2024-02-19T23:50:02.957Z,4.93
2024-02-19T23:52:33.294Z,7.25
2024-02-19T23:55:03.583Z,4.65
2024-02-19T23:57:33.525Z,4.70
